sensor_id;sensor_type;location;lat;lon;timestamp;pressure;altitude;pressure_sealevel;temperature
15845;BMP180;50807;52.436;13.346;2023-06-10T00:00:13;101184.00;;;23.30
15845;BMP180;50807;52.436;13.346;2023-06-10T00:00:46;101181.00;;;23.30
15845;BMP180;50807;52.436;13.346;2023-06-10T00:01:17;101182.00;;;23.30
15845;BMP180;50807;52.436;13.346;2023-06-10T00:01:48;101175.00;;;23.30
15845;BMP180;50807;52.436;13.346;2023-06-10T00:02:19;101180.00;;;23.30
15845;BMP180;50807;52.436;13.346;2023-06-10T00:02:50;101177.00;;;23.30
15845;BMP180;50807;52.436;13.346;2023-06-10T00:03:21;101184.00;;;23.30
15845;BMP180;50807;52.436;13.346;2023-06-10T00:03:54;101176.00;;;23.30
15845;BMP180;50807;52.436;13.346;2023-06-10T00:04:26;101180.00;;;23.30
15845;BMP180;50807;52.436;13.346;2023-06-10T00:04:57;101166.00;;;23.30
15845;BMP180;50807;52.436;13.346;2023-06-10T00:05:28;101177.00;;;23.30
15845;BMP180;50807;52.436;13.346;2023-06-10T00:06:02;101175.00;;;23.30
15845;BMP180;50807;52.436;13.346;2023-06-10T00:06:32;101168.00;;;23.20
15845;BMP180;50807;52.436;13.346;2023-06-10T00:07:06;101168.00;;;23.20
15845;BMP180;50807;52.436;13.346;2023-06-10T00:07:39;101176.00;;;23.20
15845;BMP180;50807;52.436;13.346;2023-06-10T00:08:11;101174.00;;;23.20
15845;BMP180;50807;52.436;13.346;2023-06-10T00:08:42;101176.00;;;23.20
15845;BMP180;50807;52.436;13.346;2023-06-10T00:09:14;101178.00;;;23.20
15845;BMP180;50807;52.436;13.346;2023-06-10T00:09:45;101183.00;;;23.20
15845;BMP180;50807;52.436;13.346;2023-06-10T00:10:16;101176.00;;;23.20
15845;BMP180;50807;52.436;13.346;2023-06-10T00:10:48;101180.00;;;23.20
15845;BMP180;50807;52.436;13.346;2023-06-10T00:11:21;101180.00;;;23.20
15845;BMP180;50807;52.436;13.346;2023-06-10T00:11:52;101176.00;;;23.20
15845;BMP180;50807;52.436;13.346;2023-06-10T00:12:22;101181.00;;;23.10
15845;BMP180;50807;52.436;13.346;2023-06-10T00:12:54;101182.00;;;23.20
15845;BMP180;50807;52.436;13.346;2023-06-10T00:13:25;101173.00;;;23.20
15845;BMP180;50807;52.436;13.346;2023-06-10T00:13:56;101169.00;;;23.10
15845;BMP180;50807;52.436;13.346;2023-06-10T00:14:27;101176.00;;;23.10
15845;BMP180;50807;52.436;13.346;2023-06-10T00:14:59;101171.00;;;23.10
15845;BMP180;50807;52.436;13.346;2023-06-10T00:15:30;101172.00;;;23.10
15845;BMP180;50807;52.436;13.346;2023-06-10T00:16:01;101174.00;;;23.10
15845;BMP180;50807;52.436;13.346;2023-06-10T00:16:34;101167.00;;;23.10
15845;BMP180;50807;52.436;13.346;2023-06-10T00:17:05;101168.00;;;23.10
15845;BMP180;50807;52.436;13.346;2023-06-10T00:17:40;101173.00;;;23.10
15845;BMP180;50807;52.436;13.346;2023-06-10T00:18:12;101171.00;;;23.00
15845;BMP180;50807;52.436;13.346;2023-06-10T00:18:43;101173.00;;;23.00
15845;BMP180;50807;52.436;13.346;2023-06-10T00:19:14;101169.00;;;23.00
15845;BMP180;50807;52.436;13.346;2023-06-10T00:19:46;101174.00;;;23.00
15845;BMP180;50807;52.436;13.346;2023-06-10T00:20:17;101173.00;;;23.00
15845;BMP180;50807;52.436;13.346;2023-06-10T00:20:48;101177.00;;;23.00
15845;BMP180;50807;52.436;13.346;2023-06-10T00:21:23;101171.00;;;22.90
15845;BMP180;50807;52.436;13.346;2023-06-10T00:21:56;101174.00;;;22.90
15845;BMP180;50807;52.436;13.346;2023-06-10T00:22:27;101178.00;;;22.90
15845;BMP180;50807;52.436;13.346;2023-06-10T00:23:01;101169.00;;;22.90
15845;BMP180;50807;52.436;13.346;2023-06-10T00:23:32;101176.00;;;22.90
15845;BMP180;50807;52.436;13.346;2023-06-10T00:24:09;101164.00;;;22.90
15845;BMP180;50807;52.436;13.346;2023-06-10T00:24:42;101165.00;;;22.90
15845;BMP180;50807;52.436;13.346;2023-06-10T00:25:13;101158.00;;;22.90
15845;BMP180;50807;52.436;13.346;2023-06-10T00:25:43;101156.00;;;22.90
15845;BMP180;50807;52.436;13.346;2023-06-10T00:26:15;101165.00;;;22.90
15845;BMP180;50807;52.436;13.346;2023-06-10T00:26:47;101155.00;;;22.90
15845;BMP180;50807;52.436;13.346;2023-06-10T00:27:18;101158.00;;;22.90
15845;BMP180;50807;52.436;13.346;2023-06-10T00:27:49;101158.00;;;22.90
15845;BMP180;50807;52.436;13.346;2023-06-10T00:28:20;101164.00;;;22.90
15845;BMP180;50807;52.436;13.346;2023-06-10T00:28:51;101159.00;;;22.90
15845;BMP180;50807;52.436;13.346;2023-06-10T00:29:22;101162.00;;;22.90
15845;BMP180;50807;52.436;13.346;2023-06-10T00:29:53;101164.00;;;22.90
15845;BMP180;50807;52.436;13.346;2023-06-10T00:30:25;101173.00;;;22.90
15845;BMP180;50807;52.436;13.346;2023-06-10T00:30:56;101165.00;;;22.90
15845;BMP180;50807;52.436;13.346;2023-06-10T00:31:28;101169.00;;;22.90
15845;BMP180;50807;52.436;13.346;2023-06-10T00:31:58;101173.00;;;22.90
15845;BMP180;50807;52.436;13.346;2023-06-10T00:32:30;101166.00;;;22.90
15845;BMP180;50807;52.436;13.346;2023-06-10T00:33:01;101169.00;;;22.90
15845;BMP180;50807;52.436;13.346;2023-06-10T00:33:32;101168.00;;;22.90
15845;BMP180;50807;52.436;13.346;2023-06-10T00:34:03;101173.00;;;22.90
15845;BMP180;50807;52.436;13.346;2023-06-10T00:34:34;101169.00;;;22.80
15845;BMP180;50807;52.436;13.346;2023-06-10T00:35:06;101162.00;;;22.90
15845;BMP180;50807;52.436;13.346;2023-06-10T00:35:38;101167.00;;;22.90
15845;BMP180;50807;52.436;13.346;2023-06-10T00:36:09;101167.00;;;22.80
15845;BMP180;50807;52.436;13.346;2023-06-10T00:36:40;101172.00;;;22.80
15845;BMP180;50807;52.436;13.346;2023-06-10T00:37:11;101169.00;;;22.80
15845;BMP180;50807;52.436;13.346;2023-06-10T00:37:42;101168.00;;;22.80
15845;BMP180;50807;52.436;13.346;2023-06-10T00:38:13;101171.00;;;22.80
15845;BMP180;50807;52.436;13.346;2023-06-10T00:38:45;101178.00;;;22.80
15845;BMP180;50807;52.436;13.346;2023-06-10T00:39:16;101171.00;;;22.80
15845;BMP180;50807;52.436;13.346;2023-06-10T00:39:47;101173.00;;;22.80
15845;BMP180;50807;52.436;13.346;2023-06-10T00:40:17;101171.00;;;22.80
15845;BMP180;50807;52.436;13.346;2023-06-10T00:40:49;101171.00;;;22.80
15845;BMP180;50807;52.436;13.346;2023-06-10T00:41:21;101158.00;;;22.80
15845;BMP180;50807;52.436;13.346;2023-06-10T00:41:52;101168.00;;;22.80
15845;BMP180;50807;52.436;13.346;2023-06-10T00:42:24;101165.00;;;22.80
15845;BMP180;50807;52.436;13.346;2023-06-10T00:42:55;101167.00;;;22.80
15845;BMP180;50807;52.436;13.346;2023-06-10T00:43:26;101168.00;;;22.80
15845;BMP180;50807;52.436;13.346;2023-06-10T00:43:57;101166.00;;;22.80
15845;BMP180;50807;52.436;13.346;2023-06-10T00:44:29;101164.00;;;22.80
15845;BMP180;50807;52.436;13.346;2023-06-10T00:44:59;101166.00;;;22.70
15845;BMP180;50807;52.436;13.346;2023-06-10T00:45:30;101164.00;;;22.70
15845;BMP180;50807;52.436;13.346;2023-06-10T00:46:02;101170.00;;;22.80
15845;BMP180;50807;52.436;13.346;2023-06-10T00:46:34;101165.00;;;22.70
15845;BMP180;50807;52.436;13.346;2023-06-10T00:47:07;101164.00;;;22.70
15845;BMP180;50807;52.436;13.346;2023-06-10T00:47:39;101168.00;;;22.70
15845;BMP180;50807;52.436;13.346;2023-06-10T00:48:10;101168.00;;;22.70
15845;BMP180;50807;52.436;13.346;2023-06-10T00:48:43;101169.00;;;22.70
15845;BMP180;50807;52.436;13.346;2023-06-10T00:49:16;101162.00;;;22.70
15845;BMP180;50807;52.436;13.346;2023-06-10T00:49:47;101165.00;;;22.70
15845;BMP180;50807;52.436;13.346;2023-06-10T00:50:19;101165.00;;;22.70
15845;BMP180;50807;52.436;13.346;2023-06-10T00:50:51;101170.00;;;22.70
15845;BMP180;50807;52.436;13.346;2023-06-10T00:51:22;101169.00;;;22.70
15845;BMP180;50807;52.436;13.346;2023-06-10T00:51:53;101166.00;;;22.70
15845;BMP180;50807;52.436;13.346;2023-06-10T00:52:28;101144.00;;;22.60
15845;BMP180;50807;52.436;13.346;2023-06-10T00:53:00;101164.00;;;22.60
15845;BMP180;50807;52.436;13.346;2023-06-10T00:53:32;101174.00;;;22.70
15845;BMP180;50807;52.436;13.346;2023-06-10T00:54:04;101170.00;;;22.60
15845;BMP180;50807;52.436;13.346;2023-06-10T00:54:36;101172.00;;;22.60
15845;BMP180;50807;52.436;13.346;2023-06-10T00:55:08;101168.00;;;22.60
15845;BMP180;50807;52.436;13.346;2023-06-10T00:55:41;101178.00;;;22.60
15845;BMP180;50807;52.436;13.346;2023-06-10T00:56:13;101165.00;;;22.60
15845;BMP180;50807;52.436;13.346;2023-06-10T00:56:48;101162.00;;;22.60
15845;BMP180;50807;52.436;13.346;2023-06-10T00:57:19;101163.00;;;22.60
15845;BMP180;50807;52.436;13.346;2023-06-10T00:57:51;101167.00;;;22.60
15845;BMP180;50807;52.436;13.346;2023-06-10T00:58:23;101172.00;;;22.60
15845;BMP180;50807;52.436;13.346;2023-06-10T00:58:54;101166.00;;;22.60
15845;BMP180;50807;52.436;13.346;2023-06-10T00:59:25;101178.00;;;22.60
15845;BMP180;50807;52.436;13.346;2023-06-10T00:59:57;101168.00;;;22.60
15845;BMP180;50807;52.436;13.346;2023-06-10T01:00:28;101175.00;;;22.60
15845;BMP180;50807;52.436;13.346;2023-06-10T01:00:59;101177.00;;;22.60
15845;BMP180;50807;52.436;13.346;2023-06-10T01:01:31;101173.00;;;22.50
15845;BMP180;50807;52.436;13.346;2023-06-10T01:02:04;101177.00;;;22.50
15845;BMP180;50807;52.436;13.346;2023-06-10T01:02:35;101167.00;;;22.50
15845;BMP180;50807;52.436;13.346;2023-06-10T01:03:06;101172.00;;;22.50
15845;BMP180;50807;52.436;13.346;2023-06-10T01:03:39;101178.00;;;22.50
15845;BMP180;50807;52.436;13.346;2023-06-10T01:04:10;101173.00;;;22.50
15845;BMP180;50807;52.436;13.346;2023-06-10T01:04:43;101177.00;;;22.50
15845;BMP180;50807;52.436;13.346;2023-06-10T01:05:14;101176.00;;;22.50
15845;BMP180;50807;52.436;13.346;2023-06-10T01:05:53;101175.00;;;22.40
15845;BMP180;50807;52.436;13.346;2023-06-10T01:06:41;101175.00;;;22.30
15845;BMP180;50807;52.436;13.346;2023-06-10T01:07:32;101178.00;;;22.20
15845;BMP180;50807;52.436;13.346;2023-06-10T01:08:13;101171.00;;;22.20
15845;BMP180;50807;52.436;13.346;2023-06-10T01:08:56;101182.00;;;22.20
15845;BMP180;50807;52.436;13.346;2023-06-10T01:09:38;101179.00;;;22.20
15845;BMP180;50807;52.436;13.346;2023-06-10T01:10:19;101171.00;;;22.20
15845;BMP180;50807;52.436;13.346;2023-06-10T01:10:57;101182.00;;;22.20
15845;BMP180;50807;52.436;13.346;2023-06-10T01:11:42;101170.00;;;22.20
15845;BMP180;50807;52.436;13.346;2023-06-10T01:12:21;101180.00;;;22.20
15845;BMP180;50807;52.436;13.346;2023-06-10T01:13:01;101174.00;;;22.10
15845;BMP180;50807;52.436;13.346;2023-06-10T01:13:35;101177.00;;;22.20
15845;BMP180;50807;52.436;13.346;2023-06-10T01:14:09;101184.00;;;22.20
15845;BMP180;50807;52.436;13.346;2023-06-10T01:14:41;101187.00;;;22.30
15845;BMP180;50807;52.436;13.346;2023-06-10T01:15:16;101186.00;;;22.20
15845;BMP180;50807;52.436;13.346;2023-06-10T01:15:47;101186.00;;;22.30
15845;BMP180;50807;52.436;13.346;2023-06-10T01:16:22;101180.00;;;22.30
15845;BMP180;50807;52.436;13.346;2023-06-10T01:16:53;101190.00;;;22.30
15845;BMP180;50807;52.436;13.346;2023-06-10T01:17:25;101177.00;;;22.30
15845;BMP180;50807;52.436;13.346;2023-06-10T01:17:59;101182.00;;;22.30
15845;BMP180;50807;52.436;13.346;2023-06-10T01:18:32;101179.00;;;22.30
15845;BMP180;50807;52.436;13.346;2023-06-10T01:19:03;101187.00;;;22.30
15845;BMP180;50807;52.436;13.346;2023-06-10T01:19:34;101187.00;;;22.30
15845;BMP180;50807;52.436;13.346;2023-06-10T01:20:08;101178.00;;;22.30
15845;BMP180;50807;52.436;13.346;2023-06-10T01:20:44;101182.00;;;22.20
15845;BMP180;50807;52.436;13.346;2023-06-10T01:21:20;101183.00;;;22.20
15845;BMP180;50807;52.436;13.346;2023-06-10T01:21:51;101184.00;;;22.20
15845;BMP180;50807;52.436;13.346;2023-06-10T01:22:27;101182.00;;;22.20
15845;BMP180;50807;52.436;13.346;2023-06-10T01:23:03;101186.00;;;22.20
15845;BMP180;50807;52.436;13.346;2023-06-10T01:23:34;101186.00;;;22.20
15845;BMP180;50807;52.436;13.346;2023-06-10T01:24:06;101180.00;;;22.20
15845;BMP180;50807;52.436;13.346;2023-06-10T01:24:39;101179.00;;;22.20
15845;BMP180;50807;52.436;13.346;2023-06-10T01:25:11;101183.00;;;22.20
15845;BMP180;50807;52.436;13.346;2023-06-10T01:25:47;101172.00;;;22.20
15845;BMP180;50807;52.436;13.346;2023-06-10T01:26:28;101182.00;;;22.20
15845;BMP180;50807;52.436;13.346;2023-06-10T01:27:01;101180.00;;;22.20
15845;BMP180;50807;52.436;13.346;2023-06-10T01:27:39;101179.00;;;22.10
15845;BMP180;50807;52.436;13.346;2023-06-10T01:28:15;101186.00;;;22.10
15845;BMP180;50807;52.436;13.346;2023-06-10T01:28:52;101184.00;;;22.10
15845;BMP180;50807;52.436;13.346;2023-06-10T01:29:36;101180.00;;;22.00
15845;BMP180;50807;52.436;13.346;2023-06-10T01:30:14;101183.00;;;22.00
15845;BMP180;50807;52.436;13.346;2023-06-10T01:30:59;101184.00;;;22.00
15845;BMP180;50807;52.436;13.346;2023-06-10T01:31:38;101191.00;;;22.00
15845;BMP180;50807;52.436;13.346;2023-06-10T01:32:19;101186.00;;;22.00
15845;BMP180;50807;52.436;13.346;2023-06-10T01:32:53;101179.00;;;22.00
15845;BMP180;50807;52.436;13.346;2023-06-10T01:33:29;101177.00;;;22.00
15845;BMP180;50807;52.436;13.346;2023-06-10T01:34:03;101184.00;;;22.00
15845;BMP180;50807;52.436;13.346;2023-06-10T01:34:39;101177.00;;;22.00
15845;BMP180;50807;52.436;13.346;2023-06-10T01:35:14;101184.00;;;22.00
15845;BMP180;50807;52.436;13.346;2023-06-10T01:35:47;101192.00;;;22.00
15845;BMP180;50807;52.436;13.346;2023-06-10T01:36:23;101190.00;;;22.00
15845;BMP180;50807;52.436;13.346;2023-06-10T01:36:58;101194.00;;;22.00
15845;BMP180;50807;52.436;13.346;2023-06-10T01:37:30;101190.00;;;22.00
15845;BMP180;50807;52.436;13.346;2023-06-10T01:38:03;101192.00;;;22.00
15845;BMP180;50807;52.436;13.346;2023-06-10T01:38:43;101190.00;;;22.00
15845;BMP180;50807;52.436;13.346;2023-06-10T01:39:15;101193.00;;;22.00
15845;BMP180;50807;52.436;13.346;2023-06-10T01:39:49;101192.00;;;22.00
15845;BMP180;50807;52.436;13.346;2023-06-10T01:40:21;101185.00;;;22.00
15845;BMP180;50807;52.436;13.346;2023-06-10T01:40:53;101188.00;;;22.00
15845;BMP180;50807;52.436;13.346;2023-06-10T01:41:27;101181.00;;;22.00
15845;BMP180;50807;52.436;13.346;2023-06-10T01:42:00;101180.00;;;22.00
15845;BMP180;50807;52.436;13.346;2023-06-10T01:42:33;101186.00;;;22.00
15845;BMP180;50807;52.436;13.346;2023-06-10T01:43:05;101189.00;;;22.00
15845;BMP180;50807;52.436;13.346;2023-06-10T01:43:37;101184.00;;;22.00
15845;BMP180;50807;52.436;13.346;2023-06-10T01:44:09;101194.00;;;22.00
15845;BMP180;50807;52.436;13.346;2023-06-10T01:44:41;101178.00;;;22.00
15845;BMP180;50807;52.436;13.346;2023-06-10T01:45:12;101189.00;;;22.00
15845;BMP180;50807;52.436;13.346;2023-06-10T01:45:43;101186.00;;;22.00
15845;BMP180;50807;52.436;13.346;2023-06-10T01:46:15;101178.00;;;22.00
15845;BMP180;50807;52.436;13.346;2023-06-10T01:46:50;101185.00;;;22.00
15845;BMP180;50807;52.436;13.346;2023-06-10T01:47:21;101189.00;;;22.00
15845;BMP180;50807;52.436;13.346;2023-06-10T01:47:52;101187.00;;;22.00
15845;BMP180;50807;52.436;13.346;2023-06-10T01:48:23;101183.00;;;22.00
15845;BMP180;50807;52.436;13.346;2023-06-10T01:48:54;101179.00;;;22.00
15845;BMP180;50807;52.436;13.346;2023-06-10T01:49:24;101183.00;;;22.00
15845;BMP180;50807;52.436;13.346;2023-06-10T01:49:57;101185.00;;;22.00
15845;BMP180;50807;52.436;13.346;2023-06-10T01:50:28;101182.00;;;22.00
15845;BMP180;50807;52.436;13.346;2023-06-10T01:50:59;101184.00;;;22.00
15845;BMP180;50807;52.436;13.346;2023-06-10T01:51:32;101186.00;;;21.90
15845;BMP180;50807;52.436;13.346;2023-06-10T01:52:04;101182.00;;;21.90
15845;BMP180;50807;52.436;13.346;2023-06-10T01:52:35;101183.00;;;21.90
15845;BMP180;50807;52.436;13.346;2023-06-10T01:53:38;101177.00;;;21.90
15845;BMP180;50807;52.436;13.346;2023-06-10T01:54:10;101187.00;;;21.90
15845;BMP180;50807;52.436;13.346;2023-06-10T01:54:41;101180.00;;;21.90
15845;BMP180;50807;52.436;13.346;2023-06-10T01:55:12;101185.00;;;21.90
15845;BMP180;50807;52.436;13.346;2023-06-10T01:55:43;101179.00;;;21.90
15845;BMP180;50807;52.436;13.346;2023-06-10T01:56:14;101186.00;;;21.90
15845;BMP180;50807;52.436;13.346;2023-06-10T01:56:48;101186.00;;;21.90
15845;BMP180;50807;52.436;13.346;2023-06-10T01:57:19;101192.00;;;21.90
15845;BMP180;50807;52.436;13.346;2023-06-10T01:57:50;101181.00;;;21.90
15845;BMP180;50807;52.436;13.346;2023-06-10T01:58:22;101191.00;;;21.90
15845;BMP180;50807;52.436;13.346;2023-06-10T01:58:53;101196.00;;;21.90
15845;BMP180;50807;52.436;13.346;2023-06-10T01:59:29;101190.00;;;21.90
15845;BMP180;50807;52.436;13.346;2023-06-10T02:00:00;101186.00;;;21.90
15845;BMP180;50807;52.436;13.346;2023-06-10T02:00:31;101182.00;;;21.90
15845;BMP180;50807;52.436;13.346;2023-06-10T02:01:02;101184.00;;;21.90
15845;BMP180;50807;52.436;13.346;2023-06-10T02:01:33;101185.00;;;21.90
15845;BMP180;50807;52.436;13.346;2023-06-10T02:02:05;101184.00;;;21.90
15845;BMP180;50807;52.436;13.346;2023-06-10T02:02:35;101183.00;;;21.90
15845;BMP180;50807;52.436;13.346;2023-06-10T02:03:07;101191.00;;;21.90
15845;BMP180;50807;52.436;13.346;2023-06-10T02:03:38;101190.00;;;21.90
15845;BMP180;50807;52.436;13.346;2023-06-10T02:04:09;101188.00;;;21.80
15845;BMP180;50807;52.436;13.346;2023-06-10T02:04:40;101185.00;;;21.80
15845;BMP180;50807;52.436;13.346;2023-06-10T02:05:11;101186.00;;;21.80
15845;BMP180;50807;52.436;13.346;2023-06-10T02:05:42;101194.00;;;21.80
15845;BMP180;50807;52.436;13.346;2023-06-10T02:06:14;101191.00;;;21.80
15845;BMP180;50807;52.436;13.346;2023-06-10T02:06:46;101193.00;;;21.80
15845;BMP180;50807;52.436;13.346;2023-06-10T02:07:17;101192.00;;;21.80
15845;BMP180;50807;52.436;13.346;2023-06-10T02:07:49;101193.00;;;21.80
15845;BMP180;50807;52.436;13.346;2023-06-10T02:08:20;101183.00;;;21.80
15845;BMP180;50807;52.436;13.346;2023-06-10T02:08:50;101190.00;;;21.80
15845;BMP180;50807;52.436;13.346;2023-06-10T02:09:21;101189.00;;;21.80
15845;BMP180;50807;52.436;13.346;2023-06-10T02:09:53;101188.00;;;21.80
15845;BMP180;50807;52.436;13.346;2023-06-10T02:10:24;101189.00;;;21.70
15845;BMP180;50807;52.436;13.346;2023-06-10T02:10:55;101185.00;;;21.70
15845;BMP180;50807;52.436;13.346;2023-06-10T02:11:27;101181.00;;;21.70
15845;BMP180;50807;52.436;13.346;2023-06-10T02:11:57;101184.00;;;21.70
15845;BMP180;50807;52.436;13.346;2023-06-10T02:12:28;101184.00;;;21.80
15845;BMP180;50807;52.436;13.346;2023-06-10T02:13:00;101183.00;;;21.80
15845;BMP180;50807;52.436;13.346;2023-06-10T02:13:31;101182.00;;;21.70
15845;BMP180;50807;52.436;13.346;2023-06-10T02:14:01;101182.00;;;21.70
15845;BMP180;50807;52.436;13.346;2023-06-10T02:14:33;101188.00;;;21.70
15845;BMP180;50807;52.436;13.346;2023-06-10T02:15:05;101190.00;;;21.70
15845;BMP180;50807;52.436;13.346;2023-06-10T02:15:36;101187.00;;;21.70
15845;BMP180;50807;52.436;13.346;2023-06-10T02:16:07;101183.00;;;21.80
15845;BMP180;50807;52.436;13.346;2023-06-10T02:16:40;101192.00;;;21.70
15845;BMP180;50807;52.436;13.346;2023-06-10T02:17:11;101189.00;;;21.70
15845;BMP180;50807;52.436;13.346;2023-06-10T02:17:43;101181.00;;;21.70
15845;BMP180;50807;52.436;13.346;2023-06-10T02:18:15;101185.00;;;21.70
15845;BMP180;50807;52.436;13.346;2023-06-10T02:18:47;101191.00;;;21.70
15845;BMP180;50807;52.436;13.346;2023-06-10T02:19:19;101187.00;;;21.70
15845;BMP180;50807;52.436;13.346;2023-06-10T02:19:52;101189.00;;;21.70
15845;BMP180;50807;52.436;13.346;2023-06-10T02:20:23;101187.00;;;21.70
15845;BMP180;50807;52.436;13.346;2023-06-10T02:20:54;101189.00;;;21.70
15845;BMP180;50807;52.436;13.346;2023-06-10T02:21:25;101187.00;;;21.70
15845;BMP180;50807;52.436;13.346;2023-06-10T02:21:58;101187.00;;;21.60
15845;BMP180;50807;52.436;13.346;2023-06-10T02:22:29;101187.00;;;21.70
15845;BMP180;50807;52.436;13.346;2023-06-10T02:22:59;101187.00;;;21.70
15845;BMP180;50807;52.436;13.346;2023-06-10T02:23:31;101191.00;;;21.70
15845;BMP180;50807;52.436;13.346;2023-06-10T02:24:02;101196.00;;;21.70
15845;BMP180;50807;52.436;13.346;2023-06-10T02:24:33;101191.00;;;21.70
15845;BMP180;50807;52.436;13.346;2023-06-10T02:25:06;101187.00;;;21.60
15845;BMP180;50807;52.436;13.346;2023-06-10T02:25:37;101189.00;;;21.60
15845;BMP180;50807;52.436;13.346;2023-06-10T02:26:08;101191.00;;;21.60
15845;BMP180;50807;52.436;13.346;2023-06-10T02:26:40;101188.00;;;21.60
15845;BMP180;50807;52.436;13.346;2023-06-10T02:27:12;101187.00;;;21.60
15845;BMP180;50807;52.436;13.346;2023-06-10T02:27:42;101192.00;;;21.60
15845;BMP180;50807;52.436;13.346;2023-06-10T02:28:13;101189.00;;;21.60
15845;BMP180;50807;52.436;13.346;2023-06-10T02:28:45;101190.00;;;21.60
15845;BMP180;50807;52.436;13.346;2023-06-10T02:29:16;101189.00;;;21.60
15845;BMP180;50807;52.436;13.346;2023-06-10T02:29:46;101191.00;;;21.60
15845;BMP180;50807;52.436;13.346;2023-06-10T02:30:18;101190.00;;;21.60
15845;BMP180;50807;52.436;13.346;2023-06-10T02:30:49;101188.00;;;21.60
15845;BMP180;50807;52.436;13.346;2023-06-10T02:31:20;101186.00;;;21.60
15845;BMP180;50807;52.436;13.346;2023-06-10T02:31:54;101189.00;;;21.60
15845;BMP180;50807;52.436;13.346;2023-06-10T02:32:25;101192.00;;;21.60
15845;BMP180;50807;52.436;13.346;2023-06-10T02:32:56;101195.00;;;21.60
15845;BMP180;50807;52.436;13.346;2023-06-10T02:33:27;101188.00;;;21.50
15845;BMP180;50807;52.436;13.346;2023-06-10T02:33:58;101191.00;;;21.60
15845;BMP180;50807;52.436;13.346;2023-06-10T02:34:29;101189.00;;;21.60
15845;BMP180;50807;52.436;13.346;2023-06-10T02:35:01;101195.00;;;21.60
15845;BMP180;50807;52.436;13.346;2023-06-10T02:35:32;101191.00;;;21.60
15845;BMP180;50807;52.436;13.346;2023-06-10T02:36:04;101193.00;;;21.60
15845;BMP180;50807;52.436;13.346;2023-06-10T02:36:35;101192.00;;;21.60
15845;BMP180;50807;52.436;13.346;2023-06-10T02:37:08;101195.00;;;21.50
15845;BMP180;50807;52.436;13.346;2023-06-10T02:37:41;101199.00;;;21.50
15845;BMP180;50807;52.436;13.346;2023-06-10T02:38:12;101193.00;;;21.50
15845;BMP180;50807;52.436;13.346;2023-06-10T02:38:44;101188.00;;;21.50
15845;BMP180;50807;52.436;13.346;2023-06-10T02:39:14;101189.00;;;21.50
15845;BMP180;50807;52.436;13.346;2023-06-10T02:39:45;101186.00;;;21.50
15845;BMP180;50807;52.436;13.346;2023-06-10T02:40:17;101192.00;;;21.50
15845;BMP180;50807;52.436;13.346;2023-06-10T02:40:48;101191.00;;;21.50
15845;BMP180;50807;52.436;13.346;2023-06-10T02:41:18;101186.00;;;21.50
15845;BMP180;50807;52.436;13.346;2023-06-10T02:41:52;101190.00;;;21.50
15845;BMP180;50807;52.436;13.346;2023-06-10T02:42:22;101184.00;;;21.50
15845;BMP180;50807;52.436;13.346;2023-06-10T02:42:53;101188.00;;;21.50
15845;BMP180;50807;52.436;13.346;2023-06-10T02:43:25;101190.00;;;21.50
15845;BMP180;50807;52.436;13.346;2023-06-10T02:43:56;101184.00;;;21.50
15845;BMP180;50807;52.436;13.346;2023-06-10T02:44:26;101191.00;;;21.50
15845;BMP180;50807;52.436;13.346;2023-06-10T02:44:58;101182.00;;;21.50
15845;BMP180;50807;52.436;13.346;2023-06-10T02:45:29;101189.00;;;21.50
15845;BMP180;50807;52.436;13.346;2023-06-10T02:46:00;101191.00;;;21.50
15845;BMP180;50807;52.436;13.346;2023-06-10T02:46:31;101187.00;;;21.40
15845;BMP180;50807;52.436;13.346;2023-06-10T02:47:03;101191.00;;;21.50
15845;BMP180;50807;52.436;13.346;2023-06-10T02:47:33;101192.00;;;21.40
15845;BMP180;50807;52.436;13.346;2023-06-10T02:48:05;101186.00;;;21.50
15845;BMP180;50807;52.436;13.346;2023-06-10T02:48:41;101191.00;;;21.40
15845;BMP180;50807;52.436;13.346;2023-06-10T02:49:13;101186.00;;;21.40
15845;BMP180;50807;52.436;13.346;2023-06-10T02:49:44;101184.00;;;21.40
15845;BMP180;50807;52.436;13.346;2023-06-10T02:50:15;101187.00;;;21.40
15845;BMP180;50807;52.436;13.346;2023-06-10T02:50:46;101193.00;;;21.40
15845;BMP180;50807;52.436;13.346;2023-06-10T02:51:17;101180.00;;;21.40
15845;BMP180;50807;52.436;13.346;2023-06-10T02:51:49;101187.00;;;21.40
15845;BMP180;50807;52.436;13.346;2023-06-10T02:52:24;101187.00;;;21.30
15845;BMP180;50807;52.436;13.346;2023-06-10T02:52:55;101183.00;;;21.40
15845;BMP180;50807;52.436;13.346;2023-06-10T02:53:26;101189.00;;;21.40
15845;BMP180;50807;52.436;13.346;2023-06-10T02:53:58;101189.00;;;21.40
15845;BMP180;50807;52.436;13.346;2023-06-10T02:54:28;101187.00;;;21.40
15845;BMP180;50807;52.436;13.346;2023-06-10T02:54:59;101191.00;;;21.40
15845;BMP180;50807;52.436;13.346;2023-06-10T02:55:31;101188.00;;;21.40
15845;BMP180;50807;52.436;13.346;2023-06-10T02:56:03;101189.00;;;21.40
15845;BMP180;50807;52.436;13.346;2023-06-10T02:56:34;101196.00;;;21.30
15845;BMP180;50807;52.436;13.346;2023-06-10T02:57:06;101189.00;;;21.40
15845;BMP180;50807;52.436;13.346;2023-06-10T02:57:38;101188.00;;;21.40
15845;BMP180;50807;52.436;13.346;2023-06-10T02:58:08;101194.00;;;21.30
15845;BMP180;50807;52.436;13.346;2023-06-10T02:58:39;101194.00;;;21.30
15845;BMP180;50807;52.436;13.346;2023-06-10T02:59:12;101194.00;;;21.30
15845;BMP180;50807;52.436;13.346;2023-06-10T02:59:42;101200.00;;;21.30
15845;BMP180;50807;52.436;13.346;2023-06-10T03:00:15;101194.00;;;21.30
15845;BMP180;50807;52.436;13.346;2023-06-10T03:00:47;101195.00;;;21.30
15845;BMP180;50807;52.436;13.346;2023-06-10T03:01:18;101194.00;;;21.30
15845;BMP180;50807;52.436;13.346;2023-06-10T03:01:49;101195.00;;;21.30